Time;durP1;ratioP1;P1;durP2;ratioP2;P2;SDS_P1;SDS_P2;PMS_P1;PMS_P2;Temp;Humidity;BMP_temperature;BMP_pressure;BME280_temperature;BME280_humidity;BME280_pressure;Samples;Min_cycle;Max_cycle;Signal;HPM_P1;HPM_P2
2022/09/09 00:02:04;;;;;;;8.73;6.05;;;;;;;15.90;100.00;100322.41;5078833;28;20053;-57
2022/09/09 00:04:33;;;;;;;7.25;4.95;;;;;;;15.83;100.00;100320.41;5063780;28;20036;-57
2022/09/09 00:07:16;;;;;;;6.40;5.20;;;;;;;15.82;100.00;100321.38;5081109;28;20059;-59
2022/09/09 00:09:53;;;;;;;6.88;5.63;;;;;;;15.87;100.00;100327.13;5083186;28;20397;-59
2022/09/09 00:12:33;;;;;;;7.18;5.80;;;;;;;15.83;100.00;100333.66;5059035;28;20052;-59
2022/09/09 00:15:12;;;;;;;10.05;6.03;;;;;;;15.76;100.00;100329.84;5063254;28;20044;-59
2022/09/09 00:18:09;;;;;;;8.25;6.28;;;;;;;15.73;100.00;100325.66;5065445;28;20063;-56
2022/09/09 00:20:43;;;;;;;6.43;5.57;;;;;;;15.66;100.00;100319.19;5080791;28;20047;-58
2022/09/09 00:23:24;;;;;;;8.83;6.83;;;;;;;15.62;100.00;100323.03;5058741;28;20439;-58
2022/09/09 00:26:20;;;;;;;6.20;5.60;;;;;;;15.53;100.00;100318.50;5077545;28;20465;-59
2022/09/09 00:29:12;;;;;;;10.73;6.80;;;;;;;15.56;100.00;100315.59;5065354;28;20565;-60
2022/09/09 00:31:39;;;;;;;7.60;5.13;;;;;;;15.58;100.00;100317.16;5081187;28;20100;-59
2022/09/09 00:34:16;;;;;;;6.47;5.72;;;;;;;15.57;100.00;100312.81;5078083;28;20044;-57
2022/09/09 00:36:46;;;;;;;6.70;5.15;;;;;;;15.62;100.00;100312.41;5051891;28;20119;-57
2022/09/09 00:39:35;;;;;;;5.53;5.03;;;;;;;15.66;100.00;100306.75;5083654;28;20048;-58
2022/09/09 00:42:25;;;;;;;9.60;5.40;;;;;;;15.72;100.00;100313.38;5089194;28;20416;-57
2022/09/09 00:45:17;;;;;;;5.82;5.30;;;;;;;15.67;100.00;100304.97;5079282;28;20078;-60
2022/09/09 00:47:50;;;;;;;6.88;4.63;;;;;;;15.65;100.00;100310.38;5085450;28;20059;-57
2022/09/09 00:50:35;;;;;;;6.13;5.28;;;;;;;15.63;100.00;100314.97;5084009;28;20543;-60
2022/09/09 00:53:21;;;;;;;6.10;5.50;;;;;;;15.53;100.00;100315.84;5065560;28;20055;-59
2022/09/09 00:55:48;;;;;;;;;;;;;;;15.53;100.00;100316.69;5087429;28;21082;-61
2022/09/09 00:58:15;;;;;;;7.88;4.85;;;;;;;15.59;100.00;100318.00;5067593;28;19924;-61
2022/09/09 01:01:02;;;;;;;6.32;5.20;;;;;;;15.62;100.00;100318.56;5078565;28;20052;-59
2022/09/09 01:03:45;;;;;;;8.35;5.88;;;;;;;15.65;100.00;100315.69;5066101;28;20063;-59
2022/09/09 01:06:14;;;;;;;6.10;5.50;;;;;;;15.65;100.00;100315.69;5069966;28;20063;-58
2022/09/09 01:09:10;;;;;;;8.27;4.97;;;;;;;15.63;100.00;100319.44;5066154;28;20059;-61
2022/09/09 01:11:49;;;;;;;8.55;6.03;;;;;;;15.54;100.00;100322.88;5067359;28;20056;-59
2022/09/09 01:14:35;;;;;;;5.70;5.10;;;;;;;15.47;100.00;100324.34;5060249;28;20052;-58
2022/09/09 01:17:31;;;;;;;5.90;5.15;;;;;;;15.52;100.00;100328.28;5082283;28;20045;-58
2022/09/09 01:20:17;;;;;;;6.13;4.45;;;;;;;15.52;100.00;100322.97;5082533;28;20054;-60
2022/09/09 01:22:55;;;;;;;5.95;5.30;;;;;;;15.53;100.00;100327.28;5083379;28;20059;-57
2022/09/09 01:25:44;;;;;;;6.72;6.00;;;;;;;15.56;100.00;100321.75;5081577;28;20036;-59
2022/09/09 01:28:16;;;;;;;5.88;5.35;;;;;;;15.56;100.00;100318.25;5081904;28;20079;-58
2022/09/09 01:30:43;;;;;;;5.25;4.72;;;;;;;15.59;100.00;100320.66;5068995;28;20075;-59
2022/09/09 01:33:16;;;;;;;9.40;6.38;;;;;;;15.56;100.00;100331.53;5093180;28;20048;-60
2022/09/09 01:35:46;;;;;;;6.57;5.70;;;;;;;15.55;100.00;100321.88;5085351;28;20051;-59
2022/09/09 01:38:13;;;;;;;6.95;5.35;;;;;;;15.56;100.00;100320.91;5052846;28;20060;-58
2022/09/09 01:40:40;;;;;;;7.88;5.20;;;;;;;15.58;100.00;100321.59;5080342;28;20044;-57
2022/09/09 01:43:08;;;;;;;6.22;5.70;;;;;;;15.58;100.00;100321.59;5059706;28;20533;-61
2022/09/09 01:45:35;;;;;;;8.00;5.13;;;;;;;15.57;100.00;100318.13;5074104;28;20052;-57
2022/09/09 01:48:03;;;;;;;7.53;5.30;;;;;;;15.54;100.00;100320.22;5083235;28;20063;-58
2022/09/09 01:50:30;;;;;;;8.35;4.80;;;;;;;15.53;100.00;100315.84;5084459;28;20043;-61
2022/09/09 01:52:58;;;;;;;6.00;5.18;;;;;;;15.52;100.00;100320.31;5065794;28;20547;-58
2022/09/09 01:55:32;;;;;;;8.20;5.65;;;;;;;15.50;100.00;100316.97;5080332;28;20067;-59
2022/09/09 01:58:06;;;;;;;7.72;5.07;;;;;;;15.49;100.00;100315.28;5062287;28;20056;-59
2022/09/09 02:00:37;;;;;;;6.80;4.40;;;;;;;15.48;100.00;100313.59;5069446;28;20410;-59
2022/09/09 02:03:11;;;;;;;7.45;5.32;;;;;;;15.47;100.00;100316.38;5069198;28;20385;-62
2022/09/09 02:05:41;;;;;;;7.57;5.32;;;;;;;15.41;100.00;100315.94;5086329;28;20060;-58
2022/09/09 02:08:15;;;;;;;5.75;4.75;;;;;;;15.38;100.00;100323.28;5070063;28;20060;-57
2022/09/09 02:10:55;;;;;;;6.80;5.15;;;;;;;15.37;100.00;100321.63;5100562;28;20046;-58
2022/09/09 02:13:22;;;;;;;8.07;5.13;;;;;;;15.38;100.00;100334.75;5061934;28;20048;-57
2022/09/09 02:15:58;;;;;;;6.22;4.88;;;;;;;15.37;100.00;100330.41;5070234;28;20063;-58
2022/09/09 02:18:26;;;;;;;;;;;;;;;15.36;100.00;100338.50;5082824;28;20128;-58
2022/09/09 02:20:54;;;;;;;5.07;4.45;;;;;;;15.34;100.00;100335.97;5087437;28;19932;-57
2022/09/09 02:23:21;;;;;;;7.85;4.80;;;;;;;15.30;100.00;100344.31;5058706;28;20056;-59
2022/09/09 02:25:51;;;;;;;6.35;5.43;;;;;;;15.25;100.00;100344.69;5085497;28;20055;-59
2022/09/09 02:28:21;;;;;;;10.73;5.82;;;;;;;15.24;100.00;100336.88;5066965;28;20057;-60
2022/09/09 02:30:54;;;;;;;5.40;4.90;;;;;;;15.24;100.00;100334.22;5064628;28;20058;-59
2022/09/09 02:33:28;;;;;;;6.68;5.97;;;;;;;15.25;100.00;100331.44;5085251;28;20052;-63
2022/09/09 02:36:01;;;;;;;6.60;5.40;;;;;;;15.25;100.00;100330.59;5070047;28;20052;-59
2022/09/09 02:38:30;;;;;;;5.82;5.22;;;;;;;15.22;100.00;100328.19;5067777;28;20052;-59
2022/09/09 02:40:58;;;;;;;7.40;5.20;;;;;;;15.22;100.00;100328.19;5084542;28;20051;-58
2022/09/09 02:43:25;;;;;;;5.10;4.60;;;;;;;15.21;100.00;100335.31;5067074;28;20044;-60
2022/09/09 02:46:20;;;;;;;5.00;4.50;;;;;;;15.20;100.00;100338.94;5083119;28;20105;-59
2022/09/09 02:49:04;;;;;;;5.87;4.90;;;;;;;15.21;100.00;100330.00;5068227;28;20155;-58
2022/09/09 02:52:02;;;;;;;8.30;5.32;;;;;;;15.21;100.00;100330.00;5050064;28;20473;-59
2022/09/09 02:54:36;;;;;;;8.73;5.35;;;;;;;15.20;100.00;100318.56;5069360;28;20048;-61
2022/09/09 02:57:08;;;;;;;5.80;5.13;;;;;;;15.19;100.00;100322.19;5066974;28;20058;-58
2022/09/09 02:59:36;;;;;;;11.27;5.63;;;;;;;15.19;100.00;100324.81;5076656;28;20045;-58
2022/09/09 03:02:03;;;;;;;5.15;4.65;;;;;;;15.16;100.00;100319.78;5074220;28;20053;-60
2022/09/09 03:04:31;;;;;;;11.40;6.03;;;;;;;15.15;100.00;100325.22;5080795;28;20048;-60
2022/09/09 03:06:58;;;;;;;6.03;4.93;;;;;;;15.13;100.00;100328.00;5086909;28;20060;-60
2022/09/09 03:09:28;;;;;;;6.10;5.28;;;;;;;15.06;100.00;100329.47;5083656;28;20490;-56
2022/09/09 03:11:55;;;;;;;6.18;5.25;;;;;;;15.00;100.00;100329.97;5077821;28;20665;-60
2022/09/09 03:14:24;;;;;;;5.30;4.68;;;;;;;15.01;100.00;100339.59;5078518;28;20052;-60
2022/09/09 03:16:52;;;;;;;6.28;5.03;;;;;;;15.03;100.00;100342.13;5082380;28;20538;-60
2022/09/09 03:19:20;;;;;;;5.68;5.18;;;;;;;15.06;100.00;100339.22;5077838;28;21937;-59
2022/09/09 03:21:48;;;;;;;4.85;4.38;;;;;;;15.08;100.00;100342.59;5082686;28;20048;-59
2022/09/09 03:24:15;;;;;;;7.63;5.25;;;;;;;15.10;100.00;100345.97;5068490;28;20075;-57
2022/09/09 03:26:45;;;;;;;5.30;4.50;;;;;;;15.08;100.00;100347.88;5062690;28;20040;-59
2022/09/09 03:29:12;;;;;;;5.82;4.47;;;;;;;15.09;100.00;100349.59;5064812;28;20340;-58
2022/09/09 03:31:40;;;;;;;6.72;5.07;;;;;;;15.07;100.00;100352.34;5083759;28;20052;-56
2022/09/09 03:34:07;;;;;;;5.53;5.03;;;;;;;15.05;100.00;100349.00;5075996;28;20550;-59
2022/09/09 03:36:35;;;;;;;9.35;5.30;;;;;;;15.01;100.00;100359.97;5085031;28;20063;-58
2022/09/09 03:39:03;;;;;;;8.18;5.65;;;;;;;14.82;100.00;100355.34;5082133;28;20048;-59
2022/09/09 03:41:30;;;;;;;5.45;4.72;;;;;;;14.78;100.00;100352.09;5081821;28;20056;-58
2022/09/09 03:43:57;;;;;;;5.72;5.13;;;;;;;14.79;100.00;100350.28;5085415;28;20609;-58
2022/09/09 03:46:25;;;;;;;5.38;4.65;;;;;;;14.79;100.00;100350.28;5065459;28;20052;-57
2022/09/09 03:48:52;;;;;;;6.78;4.38;;;;;;;14.77;100.00;100357.47;5081078;28;20606;-60
2022/09/09 03:51:20;;;;;;;5.90;4.97;;;;;;;14.72;100.00;100362.31;5066311;28;20083;-59
2022/09/09 03:53:47;;;;;;;5.75;4.65;;;;;;;14.65;100.00;100359.34;5079230;28;20127;-60
2022/09/09 03:56:15;;;;;;;6.82;5.88;;;;;;;14.57;100.00;100361.75;5073106;28;20052;-58
2022/09/09 03:58:42;;;;;;;8.77;5.22;;;;;;;14.46;100.00;100362.59;5069602;28;20064;-57
2022/09/09 04:01:14;;;;;;;5.65;4.85;;;;;;;14.48;100.00;100357.16;5063383;28;20056;-59
2022/09/09 04:03:42;;;;;;;5.00;4.32;;;;;;;14.53;100.00;100352.34;5057219;28;20044;-57
2022/09/09 04:06:11;;;;;;;7.40;4.38;;;;;;;14.54;100.00;100349.56;5070401;28;20057;-58
2022/09/09 04:08:39;;;;;;;4.55;4.05;;;;;;;14.51;100.00;100351.66;5070836;28;20052;-59
2022/09/09 04:11:06;;;;;;;7.00;4.85;;;;;;;14.56;100.00;100346.81;5081566;28;20460;-59
2022/09/09 04:13:34;;;;;;;4.28;3.75;;;;;;;14.57;100.00;100348.50;5076707;28;20100;-60
2022/09/09 04:16:03;;;;;;;4.38;3.97;;;;;;;14.57;100.00;100348.50;5087131;28;20060;-58
2022/09/09 04:18:31;;;;;;;5.18;4.13;;;;;;;14.56;100.00;100346.81;5077562;28;20076;-60
2022/09/09 04:20:58;;;;;;;5.57;4.15;;;;;;;14.58;100.00;100340.41;5054026;28;20059;-59
2022/09/09 04:23:28;;;;;;;4.30;3.90;;;;;;;14.59;100.00;100349.22;5069501;28;20086;-59
2022/09/09 04:25:57;;;;;;;5.35;4.18;;;;;;;14.60;100.00;100351.75;5066259;28;20859;-58
2022/09/09 04:28:26;;;;;;;6.75;4.13;;;;;;;14.62;100.00;100354.28;5068473;28;20072;-64
2022/09/09 04:30:54;;;;;;;7.30;4.25;;;;;;;14.63;100.00;100355.94;5075475;28;20040;-59
2022/09/09 04:33:21;;;;;;;6.07;4.35;;;;;;;14.62;100.00;100359.56;5085750;28;20068;-59
2022/09/09 04:35:49;;;;;;;6.57;4.47;;;;;;;14.60;100.00;100372.94;5099738;28;20051;-63
2022/09/09 04:38:17;;;;;;;9.65;4.50;;;;;;;14.59;100.00;100371.28;5086907;28;20416;-57
2022/09/09 04:40:46;;;;;;;7.70;4.07;;;;;;;14.52;100.00;100366.56;5086967;28;20048;-59
2022/09/09 04:43:16;;;;;;;4.68;4.18;;;;;;;14.56;100.00;100368.03;5090469;28;20051;-60
2022/09/09 04:45:43;;;;;;;6.85;4.07;;;;;;;14.60;100.00;100364.16;5088944;28;20052;-59
2022/09/09 04:48:10;;;;;;;9.73;4.32;;;;;;;14.62;100.00;100373.66;5086490;28;20056;-57
2022/09/09 04:50:38;;;;;;;7.03;4.25;;;;;;;14.66;100.00;100368.97;5084428;28;20465;-58
2022/09/09 04:53:05;;;;;;;4.47;3.72;;;;;;;14.66;100.00;100368.97;5088355;28;20079;-58
2022/09/09 04:55:34;;;;;;;6.13;3.80;;;;;;;14.67;100.00;100374.13;5098876;28;20047;-59
2022/09/09 04:58:07;;;;;;;4.85;4.22;;;;;;;14.62;100.00;100376.31;5084298;28;20067;-57
2022/09/09 05:00:35;;;;;;;6.15;3.80;;;;;;;14.60;100.00;100388.00;5085745;28;20048;-57
2022/09/09 05:03:06;;;;;;;7.35;3.88;;;;;;;14.63;100.00;100388.59;5082721;28;20062;-60
2022/09/09 05:05:36;;;;;;;6.80;3.92;;;;;;;14.65;100.00;100386.66;5085321;28;20048;-62
2022/09/09 05:08:04;;;;;;;6.55;3.95;;;;;;;14.69;100.00;100396.06;5083659;28;20044;-58
2022/09/09 05:10:33;;;;;;;4.85;3.75;;;;;;;14.71;100.00;100395.94;5084520;28;20059;-61
2022/09/09 05:13:00;;;;;;;6.18;4.00;;;;;;;14.72;100.00;100388.81;5082585;28;20156;-61
2022/09/09 05:15:27;;;;;;;6.28;3.80;;;;;;;14.75;100.00;100392.06;5085007;28;20044;-59
2022/09/09 05:18:00;;;;;;;4.85;3.33;;;;;;;14.73;100.00;100390.53;5086974;28;20958;-59
2022/09/09 05:20:28;;;;;;;5.68;3.63;;;;;;;14.72;100.00;100388.81;5086511;28;20062;-60
2022/09/09 05:22:56;;;;;;;5.55;3.78;;;;;;;14.72;100.00;100391.47;5087326;28;20048;-60
2022/09/09 05:25:27;;;;;;;5.28;3.65;;;;;;;14.73;100.00;100387.88;5076872;28;20064;-59
2022/09/09 05:27:54;;;;;;;5.32;3.35;;;;;;;14.72;100.00;100384.34;5083111;28;20060;-60
2022/09/09 05:30:22;;;;;;;5.00;3.63;;;;;;;14.71;100.00;100382.69;5066046;28;20044;-60
2022/09/09 05:32:50;;;;;;;8.27;4.30;;;;;;;14.65;100.00;100389.31;5082663;28;20653;-59
2022/09/09 05:35:18;;;;;;;4.40;3.78;;;;;;;14.66;100.00;100392.81;5059352;28;20063;-57
2022/09/09 05:37:46;;;;;;;6.03;3.83;;;;;;;14.69;100.00;100390.75;5078066;28;20044;-59
2022/09/09 05:40:13;;;;;;;6.68;3.95;;;;;;;14.71;100.00;100384.50;5062579;28;20047;-57
2022/09/09 05:42:41;;;;;;;4.88;3.72;;;;;;;14.72;100.00;100380.88;5083879;28;20056;-60
2022/09/09 05:45:09;;;;;;;6.93;3.47;;;;;;;14.77;100.00;100391.94;5080386;28;20066;-58
2022/09/09 05:47:37;;;;;;;5.95;3.50;;;;;;;14.77;100.00;100379.56;5083933;28;20056;-58
2022/09/09 05:50:04;;;;;;;7.47;3.40;;;;;;;14.81;100.00;100388.06;5085877;28;20054;-58
2022/09/09 05:52:32;;;;;;;7.05;3.03;;;;;;;14.84;100.00;100382.53;5083428;28;20135;-57
2022/09/09 05:54:59;;;;;;;9.98;4.13;;;;;;;14.80;100.00;100386.41;5086563;28;20059;-60
2022/09/09 05:57:26;;;;;;;6.60;3.92;;;;;;;14.80;100.00;100389.88;5080168;28;20056;-60
2022/09/09 05:59:53;;;;;;;7.25;3.38;;;;;;;14.86;100.00;100394.72;5069320;28;20072;-59
2022/09/09 06:02:20;;;;;;;7.35;3.42;;;;;;;14.91;100.00;100392.53;5088661;28;20385;-57
2022/09/09 06:04:48;;;;;;;7.90;3.80;;;;;;;14.95;100.00;100395.78;5087055;28;20527;-60
2022/09/09 06:07:15;;;;;;;4.55;3.15;;;;;;;14.99;100.00;100401.66;5073063;28;20056;-58
2022/09/09 06:09:42;;;;;;;7.53;3.13;;;;;;;15.03;100.00;100403.94;5088306;28;20496;-60
2022/09/09 06:12:09;;;;;;;11.93;4.00;;;;;;;14.98;100.00;100398.16;5086054;28;20048;-60
2022/09/09 06:14:36;;;;;;;7.60;4.00;;;;;;;14.98;100.00;100408.78;5081775;28;20051;-58
2022/09/09 06:17:03;;;;;;;6.22;3.20;;;;;;;15.03;100.00;100414.53;5085100;28;20092;-60
2022/09/09 06:19:31;;;;;;;10.23;3.83;;;;;;;15.08;100.00;100417.66;5080769;28;20086;-59
2022/09/09 06:21:58;;;;;;;7.88;3.60;;;;;;;15.09;100.00;100414.06;5083953;28;20131;-60
2022/09/09 06:24:25;;;;;;;7.43;3.72;;;;;;;15.14;100.00;100413.69;5079717;28;20048;-60
2022/09/09 06:26:53;;;;;;;13.75;3.78;;;;;;;15.16;100.00;100401.97;5079289;28;20631;-59
2022/09/09 06:29:21;;;;;;;6.93;3.25;;;;;;;15.17;100.00;100416.94;5078476;28;20060;-59
2022/09/09 06:31:48;;;;;;;6.63;3.15;;;;;;;15.19;100.00;100407.03;5078095;28;20162;-60
2022/09/09 06:34:15;;;;;;;8.68;2.95;;;;;;;15.23;100.00;100404.97;5070858;28;20047;-57
2022/09/09 06:36:42;;;;;;;6.55;3.20;;;;;;;15.29;100.00;100404.47;5056356;28;20052;-59
2022/09/09 06:39:11;;;;;;;4.47;2.60;;;;;;;15.30;100.00;100418.56;5083251;28;20747;-60
2022/09/09 06:41:42;;;;;;;5.68;3.03;;;;;;;15.31;100.00;100426.41;5085004;28;20399;-60
2022/09/09 06:44:11;;;;;;;3.88;2.60;;;;;;;15.38;100.00;100430.22;5079724;28;20052;-60
2022/09/09 06:46:39;;;;;;;7.72;2.90;;;;;;;15.38;100.00;100424.09;5079338;28;20059;-59
2022/09/09 06:49:08;;;;;;;4.28;2.40;;;;;;;15.32;100.00;100432.56;5083453;28;20499;-60
2022/09/09 06:51:42;;;;;;;5.93;2.75;;;;;;;15.32;100.00;100430.75;5077255;28;20424;-58
2022/09/09 06:54:10;;;;;;;7.32;2.72;;;;;;;15.36;100.00;100426.03;5088504;28;20289;-61
2022/09/09 06:56:42;;;;;;;5.00;2.40;;;;;;;15.40;100.00;100435.41;5084138;28;20058;-59
2022/09/09 06:59:10;;;;;;;6.60;3.85;;;;;;;15.44;100.00;100426.22;5077443;28;20066;-58
2022/09/09 07:01:43;;;;;;;7.32;2.30;;;;;;;15.44;100.00;100426.22;5081352;28;20048;-59
2022/09/09 07:04:11;;;;;;;6.80;2.60;;;;;;;15.47;100.00;100420.69;5060018;28;20530;-59
2022/09/09 07:06:40;;;;;;;11.55;3.22;;;;;;;15.53;100.00;100420.16;5084069;28;20055;-58
2022/09/09 07:09:09;;;;;;;7.50;2.58;;;;;;;15.63;100.00;100423.75;5079518;28;20054;-60
2022/09/09 07:11:48;;;;;;;4.53;2.08;;;;;;;15.67;100.00;100427.03;5082647;28;20096;-56
2022/09/09 07:14:16;;;;;;;4.38;2.25;;;;;;;15.76;100.00;100431.56;5082649;28;20170;-55
2022/09/09 07:16:44;;;;;;;6.13;2.15;;;;;;;15.83;100.00;100430.06;5087866;28;20412;-58
2022/09/09 07:19:12;;;;;;;5.95;2.92;;;;;;;15.88;100.00;100432.34;5078630;28;20527;-59
2022/09/09 07:21:40;;;;;;;4.35;2.38;;;;;;;15.97;100.00;100428.06;5086301;28;20512;-57
2022/09/09 07:24:09;;;;;;;6.72;2.30;;;;;;;16.10;99.92;100434.03;5080287;28;20060;-59
2022/09/09 07:26:38;;;;;;;7.47;2.53;;;;;;;16.15;100.00;100426.50;5079435;28;20441;-59
2022/09/09 07:29:05;;;;;;;8.43;2.67;;;;;;;16.18;99.22;100424.44;5084393;28;20062;-60
2022/09/09 07:31:36;;;;;;;7.10;2.35;;;;;;;16.29;98.76;100433.28;5087578;28;20047;-59
2022/09/09 07:34:04;;;;;;;4.60;2.30;;;;;;;16.36;98.42;100432.63;5081935;28;20047;-58
2022/09/09 07:36:37;;;;;;;3.20;2.35;;;;;;;16.44;98.42;100431.97;5087576;28;20086;-58
2022/09/09 07:39:07;;;;;;;4.03;2.10;;;;;;;16.52;97.40;100431.28;5081590;28;20392;-55
2022/09/09 07:41:37;;;;;;;3.40;2.00;;;;;;;16.59;97.10;100435.13;5090951;28;20051;-59
2022/09/09 07:44:06;;;;;;;3.65;2.00;;;;;;;16.64;95.89;100433.72;5085654;28;20044;-59
2022/09/09 07:46:34;;;;;;;4.03;1.90;;;;;;;16.73;95.21;100432.13;5079629;28;20066;-56
2022/09/09 07:49:03;;;;;;;5.97;2.20;;;;;;;16.83;95.08;100442.78;5069757;28;20056;-57
2022/09/09 07:51:35;;;;;;;5.15;2.17;;;;;;;16.95;94.22;100445.19;5089808;28;20044;-52
2022/09/09 07:54:05;;;;;;;7.75;2.38;;;;;;;17.03;93.66;100435.72;5085905;28;20512;-59
2022/09/09 07:56:33;;;;;;;7.38;2.17;;;;;;;17.04;92.58;100438.22;5082952;28;20254;-58
2022/09/09 07:59:00;;;;;;;4.60;2.28;;;;;;;17.12;93.33;100445.53;5082263;28;20080;-58
2022/09/09 08:01:38;;;;;;;4.40;1.95;;;;;;;17.22;92.79;100446.38;5084389;28;20067;-59
2022/09/09 08:04:15;;;;;;;5.85;2.35;;;;;;;17.29;92.78;100444.00;5088411;28;20040;-59
2022/09/09 08:06:44;;;;;;;3.85;2.05;;;;;;;17.35;92.22;100449.63;5089852;28;20135;-58
2022/09/09 08:09:12;;;;;;;4.70;1.83;;;;;;;17.41;91.58;100449.06;5080293;28;20055;-59
2022/09/09 08:11:40;;;;;;;4.40;1.70;;;;;;;17.53;90.98;100451.59;5090084;28;20048;-58
2022/09/09 08:14:08;;;;;;;3.33;1.75;;;;;;;17.64;91.22;100452.28;5088162;28;20056;-60
2022/09/09 08:16:38;;;;;;;3.72;1.70;;;;;;;17.64;89.77;100449.63;5094708;28;20524;-56
2022/09/09 08:19:07;;;;;;;7.45;2.30;;;;;;;17.71;89.62;100453.44;5087393;28;20135;-57
2022/09/09 08:21:36;;;;;;;7.20;2.08;;;;;;;17.76;89.77;100458.38;5089224;28;20044;-57
2022/09/09 08:24:04;;;;;;;5.10;1.95;;;;;;;17.80;90.77;100454.44;5083959;28;20155;-62
2022/09/09 08:26:46;;;;;;;5.18;1.70;;;;;;;17.85;89.52;100456.69;5088533;28;20060;-59
2022/09/09 08:29:16;;;;;;;4.72;1.60;;;;;;;17.88;88.56;100464.41;5086535;28;20051;-61
2022/09/09 08:31:44;;;;;;;9.05;1.88;;;;;;;17.86;89.04;100459.19;5090226;28;20063;-61
2022/09/09 08:34:12;;;;;;;10.82;2.00;;;;;;;17.90;88.78;100459.75;5086316;28;20048;-60
2022/09/09 08:36:42;;;;;;;7.40;1.77;;;;;;;17.89;89.45;100458.06;5089423;28;20056;-60
2022/09/09 08:39:11;;;;;;;4.90;1.60;;;;;;;17.92;88.96;100450.66;5083801;28;20071;-58
2022/09/09 08:41:51;;;;;;;5.18;1.60;;;;;;;18.02;88.58;100455.97;5087810;28;20056;-59
2022/09/09 08:44:27;;;;;;;5.13;1.48;;;;;;;18.02;88.40;100455.97;5082962;28;20044;-59
2022/09/09 08:47:15;;;;;;;7.72;1.88;;;;;;;18.00;87.92;100460.56;5085904;28;20047;-60
2022/09/09 08:50:12;;;;;;;6.13;2.10;;;;;;;18.01;88.54;100464.91;5082215;28;20052;-60
2022/09/09 08:52:52;;;;;;;5.68;2.33;;;;;;;18.05;88.14;100465.47;5089770;28;20059;-61
2022/09/09 08:55:41;;;;;;;5.47;2.05;;;;;;;18.12;88.18;100459.44;5068951;28;20052;-59
2022/09/09 08:58:15;;;;;;;7.80;2.10;;;;;;;18.17;87.84;100462.50;5086586;28;20618;-60
2022/09/09 09:01:13;;;;;;;8.90;2.00;;;;;;;18.26;88.09;100466.16;5072508;28;20067;-59
2022/09/09 09:03:55;;;;;;;5.47;1.60;;;;;;;18.27;87.24;100459.81;5088431;28;20040;-60
2022/09/09 09:06:30;;;;;;;8.30;1.58;;;;;;;18.28;86.89;100464.19;5086391;28;20067;-57
2022/09/09 09:09:05;;;;;;;4.53;2.05;;;;;;;18.35;87.18;100461.78;5087327;28;20130;-58
2022/09/09 09:11:41;;;;;;;3.30;1.50;;;;;;;18.39;85.90;100463.16;5066764;28;20047;-59
2022/09/09 09:14:23;;;;;;;5.32;1.75;;;;;;;18.39;84.78;100468.50;5080488;28;20056;-59
2022/09/09 09:17:15;;;;;;;5.97;1.60;;;;;;;18.48;85.62;100467.63;5086345;28;20066;-61
2022/09/09 09:19:43;;;;;;;5.70;1.90;;;;;;;18.61;85.19;100468.16;5068776;28;20571;-62
2022/09/09 09:22:29;;;;;;;7.10;2.30;;;;;;;18.73;84.74;100463.47;5086816;28;20286;-59
2022/09/09 09:25:20;;;;;;;5.18;2.00;;;;;;;18.77;83.29;100467.53;5066970;28;20048;-60
2022/09/09 09:28:06;;;;;;;10.45;1.90;;;;;;;18.82;83.17;100464.44;5082458;28;20052;-59
2022/09/09 09:30:40;;;;;;;5.97;1.70;;;;;;;18.87;83.26;100465.69;5086223;28;20071;-58
2022/09/09 09:33:49;;;;;;;4.45;1.85;;;;;;;18.91;80.02;100459.06;5068070;28;20056;-59
2022/09/09 09:36:17;;;;;;;4.28;1.48;;;;;;;18.98;82.66;100461.97;5067125;28;20059;-60
2022/09/09 09:38:56;;;;;;;4.00;1.30;;;;;;;19.06;82.10;100462.06;5087166;28;20059;-59
2022/09/09 09:41:43;;;;;;;6.60;2.08;;;;;;;19.17;81.45;100459.19;5083531;28;20048;-59
2022/09/09 09:44:30;;;;;;;3.78;1.63;;;;;;;19.19;81.16;100454.56;5087359;28;20348;-59
2022/09/09 09:47:08;;;;;;;3.58;1.60;;;;;;;19.30;81.77;100458.00;5089618;28;20411;-58
2022/09/09 09:49:35;;;;;;;7.00;2.17;;;;;;;19.38;81.60;100464.25;5077363;28;20060;-59
2022/09/09 09:52:03;;;;;;;7.13;1.58;;;;;;;19.49;79.00;100465.84;5090966;28;20565;-58
2022/09/09 09:54:38;;;;;;;4.38;1.50;;;;;;;19.56;79.22;100463.44;5069368;28;20436;-60
2022/09/09 09:57:12;;;;;;;5.25;1.60;;;;;;;19.60;79.51;100467.47;5065047;28;20060;-60
2022/09/09 09:59:39;;;;;;;2.58;1.52;;;;;;;19.69;79.49;100456.75;5059698;28;20044;-58
2022/09/09 10:02:17;;;;;;;5.80;2.10;;;;;;;19.79;79.07;100456.66;5067565;28;20052;-59
2022/09/09 10:04:47;;;;;;;7.15;1.65;;;;;;;19.87;79.42;100458.56;5085547;28;20500;-57
2022/09/09 10:07:20;;;;;;;6.72;1.70;;;;;;;19.95;77.34;100462.16;5068274;28;20044;-60
2022/09/09 10:09:55;;;;;;;4.93;1.60;;;;;;;19.97;76.34;100464.66;5084918;28;20057;-60
2022/09/09 10:12:30;;;;;;;2.15;1.50;;;;;;;19.98;76.06;100456.47;5060898;28;20704;-60
2022/09/09 10:15:22;;;;;;;10.02;2.15;;;;;;;20.01;75.73;100462.53;5086574;28;20408;-61
2022/09/09 10:18:04;;;;;;;5.25;2.35;;;;;;;20.06;76.91;100461.06;5050464;28;20060;-61
2022/09/09 10:20:44;;;;;;;4.68;1.55;;;;;;;20.15;77.67;100464.63;5084355;28;20055;-59
2022/09/09 10:23:40;;;;;;;2.80;1.55;;;;;;;20.24;76.31;100466.34;5066373;28;20079;-61
2022/09/09 10:26:32;;;;;;;4.63;1.58;;;;;;;20.36;75.86;100464.28;5073846;28;20242;-61
2022/09/09 10:29:27;;;;;;;5.35;1.30;;;;;;;20.40;73.99;100465.63;5052884;28;20043;-60
2022/09/09 10:32:02;;;;;;;10.40;2.05;;;;;;;20.45;73.98;100466.00;5087056;28;20067;-61
2022/09/09 10:35:02;;;;;;;5.85;1.35;;;;;;;20.53;74.99;100471.41;5074557;28;20048;-63
2022/09/09 10:37:32;;;;;;;5.45;1.00;;;;;;;20.60;72.98;100472.47;5057496;28;20070;-62
2022/09/09 10:40:25;;;;;;;7.38;1.58;;;;;;;20.66;73.45;100470.97;5081318;28;20519;-62
2022/09/09 10:42:58;;;;;;;5.68;1.60;;;;;;;20.71;72.81;100474.88;5079306;28;20274;-63
2022/09/09 10:45:40;;;;;;;4.00;1.40;;;;;;;20.81;71.63;100481.94;5070298;28;20059;-63
2022/09/09 10:48:28;;;;;;;7.28;1.50;;;;;;;20.82;72.46;100480.94;5055460;28;20043;-63
2022/09/09 10:51:21;;;;;;;7.07;1.58;;;;;;;20.85;72.06;100475.25;5063010;28;20114;-61
2022/09/09 10:54:01;;;;;;;4.35;1.42;;;;;;;20.90;71.19;100478.31;5073403;28;20052;-62
2022/09/09 10:56:29;;;;;;;4.05;1.60;;;;;;;20.91;71.05;100475.44;5071970;28;20409;-60
2022/09/09 10:59:00;;;;;;;5.90;1.77;;;;;;;21.02;72.31;100471.63;5081359;28;20059;-61
2022/09/09 11:01:40;;;;;;;4.60;1.55;;;;;;;21.16;71.50;100480.88;5060368;28;20280;-63
2022/09/09 11:04:16;;;;;;;7.85;1.48;;;;;;;21.30;70.81;100476.75;5083637;28;20056;-62
2022/09/09 11:06:48;;;;;;;4.90;1.50;;;;;;;21.44;69.96;100474.31;5066967;28;20148;-61
2022/09/09 11:09:23;;;;;;;6.72;1.67;;;;;;;21.59;69.24;100471.81;5079213;28;20056;-61
2022/09/09 11:11:58;;;;;;;5.75;1.70;;;;;;;21.78;69.08;100461.78;5084181;28;20066;-61
2022/09/09 11:14:40;;;;;;;5.00;1.20;;;;;;;21.92;66.74;100463.78;5082277;28;20060;-61
2022/09/09 11:17:12;;;;;;;6.47;2.00;;;;;;;21.98;65.79;100460.47;5061800;28;20059;-61
2022/09/09 11:19:41;;;;;;;12.20;2.00;;;;;;;21.93;67.70;100481.53;5060198;28;20044;-62
2022/09/09 11:22:21;;;;;;;6.28;1.30;;;;;;;21.88;66.56;100473.16;5086126;28;20063;-62
2022/09/09 11:24:56;;;;;;;5.53;1.60;;;;;;;21.90;66.75;100468.50;5082104;28;20051;-63
2022/09/09 11:27:31;;;;;;;4.40;1.40;;;;;;;21.93;66.49;100471.69;5085897;28;20094;-63
2022/09/09 11:30:18;;;;;;;6.63;1.25;;;;;;;21.99;65.61;100479.03;5056437;28;20082;-61
2022/09/09 11:33:24;;;;;;;4.25;1.30;;;;;;;21.95;65.42;100474.19;5062599;28;20044;-62
2022/09/09 11:36:08;;;;;;;3.67;1.17;;;;;;;21.89;65.44;100473.03;5085658;28;20067;-62
2022/09/09 11:38:52;;;;;;;3.78;1.20;;;;;;;21.79;66.37;100469.66;5076916;28;20657;-62
2022/09/09 11:41:20;;;;;;;5.15;1.30;;;;;;;21.58;66.02;100480.03;5084769;28;20048;-63
2022/09/09 11:43:51;;;;;;;5.30;1.30;;;;;;;21.45;67.52;100478.66;5063856;28;20063;-62
2022/09/09 11:46:21;;;;;;;3.15;1.33;;;;;;;21.60;67.98;100472.66;5047425;28;20052;-63
2022/09/09 11:49:00;;;;;;;3.72;1.08;;;;;;;21.94;66.82;100464.47;5055940;28;20424;-63